createdAt,value
2019-04-03T00:02:19.968Z,96046.52
2019-04-03T00:07:32.168Z,96048.37
2019-04-03T00:12:27.955Z,96049.30
2019-04-03T00:17:23.963Z,96042.09
2019-04-03T00:22:21.500Z,96046.54
2019-04-03T00:27:20.696Z,96050.36
2019-04-03T00:32:16.828Z,96033.52
2019-04-03T00:37:23.297Z,96031.14
2019-04-03T00:42:20.395Z,96028.73
2019-04-03T00:47:16.125Z,96024.24
2019-04-03T00:52:15.126Z,96023.32
2019-04-03T00:57:10.924Z,96021.30
2019-04-03T01:02:06.655Z,96016.97
2019-04-03T01:07:02.394Z,96010.89
2019-04-03T01:12:00.137Z,96011.38
2019-04-03T01:16:55.824Z,96001.91
2019-04-03T01:21:51.755Z,95998.95
2019-04-03T01:26:47.598Z,95993.69
2019-04-03T01:31:44.919Z,95989.86
2019-04-03T01:36:42.107Z,95988.49
2019-04-03T01:41:38.075Z,95985.73
2019-04-03T01:46:33.886Z,95989.85
2019-04-03T01:51:30.684Z,95983.67
2019-04-03T01:56:26.449Z,95981.88
2019-04-03T02:01:22.267Z,95984.97
2019-04-03T02:06:18.072Z,95976.00
2019-04-03T02:11:15.112Z,95969.49
2019-04-03T02:16:11.129Z,95971.52
2019-04-03T02:21:07.078Z,95963.73
2019-04-03T02:26:03.117Z,95965.97
2019-04-03T02:30:59.024Z,95958.14
2019-04-03T02:35:54.957Z,95951.03
2019-04-03T02:40:50.754Z,95939.17
2019-04-03T02:45:46.689Z,95937.09
2019-04-03T02:50:46.538Z,95940.77
2019-04-03T02:55:41.963Z,95942.05
2019-04-03T03:00:37.902Z,95946.55
2019-04-03T03:05:33.750Z,95940.70
2019-04-03T03:10:31.736Z,95948.63
2019-04-03T03:15:28.914Z,95952.96
2019-04-03T03:20:26.941Z,95950.45
2019-04-03T03:25:23.818Z,95940.30
2019-04-03T03:30:37.302Z,95939.30
2019-04-03T03:35:27.233Z,95935.54
2019-04-03T03:40:17.213Z,95935.94
2019-04-03T03:45:18.326Z,95934.62
2019-04-03T03:50:12.793Z,95930.27
2019-04-03T03:55:09.645Z,95921.72
2019-04-03T04:00:07.077Z,95916.30
2019-04-03T04:05:36.139Z,95920.67
2019-04-03T04:10:39.040Z,95910.75
2019-04-03T04:15:35.507Z,95915.24
2019-04-03T04:20:36.610Z,95903.95
2019-04-03T04:25:31.105Z,95895.44
2019-04-03T04:30:26.985Z,95893.36
2019-04-03T04:35:22.826Z,95901.34
2019-04-03T04:40:18.765Z,95898.54
2019-04-03T04:45:14.572Z,95897.38
2019-04-03T04:50:10.723Z,95892.39
2019-04-03T04:55:07.216Z,95887.69
2019-04-03T05:00:03.757Z,95883.42
2019-04-03T05:04:59.657Z,95890.70
2019-04-03T05:09:55.521Z,95886.81
2019-04-03T05:14:51.552Z,95890.94
2019-04-03T05:19:48.991Z,95889.23
2019-04-03T05:24:44.856Z,95888.92
2019-04-03T05:29:40.749Z,95888.27
2019-04-03T05:34:36.534Z,95899.35
2019-04-03T05:39:32.440Z,95893.44
2019-04-03T05:44:28.718Z,95888.41
2019-04-03T05:49:24.589Z,95885.72
2019-04-03T05:54:20.532Z,95886.70
2019-04-03T05:59:16.376Z,95889.38
2019-04-03T06:04:12.186Z,95878.35
2019-04-03T06:09:08.877Z,95876.83
2019-04-03T06:14:04.999Z,95871.69
2019-04-03T06:19:01.014Z,95874.34
2019-04-03T06:23:57.231Z,95864.60
2019-04-03T06:28:54.383Z,95859.96
2019-04-03T06:33:51.574Z,95859.27
2019-04-03T06:38:50.945Z,95855.97
2019-04-03T06:43:49.127Z,95847.86
2019-04-03T06:48:44.919Z,95846.46
2019-04-03T06:53:40.894Z,95848.45
2019-04-03T06:58:39.608Z,95841.31
2019-04-03T07:03:34.994Z,95834.32
2019-04-03T07:08:39.880Z,95835.76
2019-04-03T07:13:34.514Z,95833.09
2019-04-03T07:18:30.542Z,95829.63
2019-04-03T07:23:28.972Z,95829.59
2019-04-03T07:28:26.566Z,95826.34
2019-04-03T07:33:22.327Z,95828.27
2019-04-03T07:38:18.196Z,95836.25
2019-04-03T07:43:14.050Z,95826.39
2019-04-03T07:48:15.031Z,95821.84
2019-04-03T07:53:10.946Z,95809.25
2019-04-03T07:58:07.295Z,95810.02
2019-04-03T08:03:04.249Z,95812.98
2019-04-03T08:08:01.654Z,95813.82
2019-04-03T08:12:59.591Z,95810.63
2019-04-03T08:17:57.597Z,95807.48
2019-04-03T08:22:54.487Z,95801.41
2019-04-03T08:27:51.042Z,95792.32
2019-04-03T08:32:48.961Z,95793.09
2019-04-03T08:37:45.654Z,95791.54
2019-04-03T08:42:45.405Z,95779.31
2019-04-03T08:47:44.660Z,95773.75
2019-04-03T08:52:39.639Z,95773.14
2019-04-03T08:57:36.758Z,95773.02
2019-04-03T09:02:33.324Z,95764.10
2019-04-03T09:07:32.893Z,95756.47
2019-04-03T09:12:32.415Z,95741.63
2019-04-03T09:17:28.691Z,95732.05
2019-04-03T09:22:24.648Z,95719.02
2019-04-03T09:27:20.766Z,95702.64
2019-04-03T09:32:17.335Z,95694.13
2019-04-03T09:37:13.677Z,95693.24
2019-04-03T09:42:09.630Z,95679.27
2019-04-03T09:47:05.646Z,95667.29
2019-04-03T09:52:01.724Z,95657.82
2019-04-03T09:57:03.539Z,95655.80
2019-04-03T10:01:55.461Z,95652.11
2019-04-03T10:06:51.903Z,95641.31
2019-04-03T10:11:51.497Z,95629.08
2019-04-03T10:16:47.702Z,95622.78
2019-04-03T10:21:43.592Z,95613.72
2019-04-03T10:26:40.850Z,95612.44
2019-04-03T10:31:37.344Z,95590.56
2019-04-03T10:36:33.188Z,95578.78
2019-04-03T10:41:29.647Z,95558.41
2019-04-03T10:46:25.693Z,95554.32
2019-04-03T10:51:21.951Z,95534.62
2019-04-03T10:56:17.833Z,95518.64
2019-04-03T11:01:14.933Z,95504.34
2019-04-03T11:06:10.993Z,95504.95
2019-04-03T11:11:07.246Z,95494.89
2019-04-03T11:16:03.221Z,95485.33
2019-04-03T11:20:59.107Z,95474.01
2019-04-03T11:25:55.057Z,95460.91
2019-04-03T11:30:52.871Z,95453.38
2019-04-03T11:35:48.927Z,95450.08
2019-04-03T11:40:45.386Z,95431.44
2019-04-03T11:45:45.257Z,95424.10
2019-04-03T11:50:41.214Z,95415.17
2019-04-03T11:55:37.158Z,95410.45
2019-04-03T12:00:40.079Z,95400.18
2019-04-03T12:05:36.088Z,95398.32
2019-04-03T12:10:32.798Z,95392.83
2019-04-03T12:15:29.613Z,95383.97
2019-04-03T12:20:25.461Z,95382.58
2019-04-03T12:25:21.603Z,95371.27
2019-04-03T12:30:18.985Z,95361.73
2019-04-03T12:35:36.288Z,95350.19
2019-04-03T12:41:32.003Z,95342.70
2019-04-03T12:47:33.597Z,95325.30
2019-04-03T12:52:36.570Z,95316.34
2019-04-03T13:20:44.560Z,95234.25
2019-04-03T13:25:40.916Z,95225.55
2019-04-03T13:30:37.073Z,95217.74
2019-04-03T13:35:33.127Z,95211.02
2019-04-03T13:40:29.258Z,95199.80
2019-04-03T13:45:25.139Z,95186.12
2019-04-03T13:50:22.930Z,95181.14
2019-04-03T13:55:18.858Z,95164.38
2019-04-03T14:00:21.174Z,95165.85
2019-04-03T14:05:14.490Z,95159.71
2019-04-03T14:10:11.022Z,95156.39
2019-04-03T14:15:08.526Z,95151.22
2019-04-03T14:20:04.986Z,95152.75
2019-04-03T14:25:12.673Z,95147.24
2019-04-03T14:30:02.087Z,95136.73
2019-04-03T14:35:06.324Z,95135.41
2019-04-03T14:39:55.701Z,95130.58
2019-04-03T14:44:52.233Z,95132.42
2019-04-03T14:49:48.585Z,95122.03
2019-04-03T14:54:44.812Z,95128.36
2019-04-03T14:59:41.171Z,95126.31
2019-04-03T15:04:37.655Z,95138.87
2019-04-03T15:09:34.049Z,95144.52
2019-04-03T15:14:30.230Z,95137.50
2019-04-03T15:19:26.079Z,95143.09
2019-04-03T15:24:21.930Z,95133.69
2019-04-03T15:29:25.031Z,95145.23
2019-04-03T15:34:20.914Z,95173.18
2019-04-03T15:39:19.552Z,95197.37
2019-04-03T15:44:15.488Z,95232.06
2019-04-03T15:49:12.053Z,95266.89
2019-04-03T15:54:08.167Z,95326.70
2019-04-03T15:59:06.304Z,95357.94
2019-04-03T16:04:04.648Z,95359.39
2019-04-03T16:09:05.089Z,95373.21
2019-04-03T16:14:01.470Z,95397.30
2019-04-03T16:18:59.477Z,95396.22
2019-04-03T16:23:56.117Z,95414.78
2019-04-03T16:28:52.684Z,95413.97
2019-04-03T16:33:48.923Z,95425.70
2019-04-03T16:38:55.155Z,95436.88
2019-04-03T16:44:10.268Z,95441.61
2019-04-03T16:49:32.550Z,95452.98
2019-04-03T16:54:29.638Z,95465.94
2019-04-03T16:59:26.140Z,95480.70
2019-04-03T17:04:27.924Z,95502.52
2019-04-03T17:09:25.577Z,95502.53
2019-04-03T17:14:24.427Z,95518.23
2019-04-03T17:19:20.015Z,95522.48
2019-04-03T17:24:17.806Z,95530.12
2019-04-03T17:29:19.592Z,95545.69
2019-04-03T17:34:19.892Z,95537.27
2019-04-03T17:39:16.091Z,95536.74
2019-04-03T17:44:24.211Z,95532.51
2019-04-03T17:49:20.462Z,95541.22
2019-04-03T17:54:24.389Z,95537.97
2019-04-03T17:59:22.762Z,95538.78
2019-04-03T18:04:20.246Z,95545.09
2019-04-03T18:09:16.954Z,95551.31
2019-04-03T18:14:13.502Z,95572.67
2019-04-03T18:19:11.384Z,95565.28
2019-04-03T18:24:08.048Z,95572.20
2019-04-03T18:29:18.821Z,95566.77
2019-04-03T18:34:15.138Z,95567.92
2019-04-03T18:39:13.064Z,95573.53
2019-04-03T18:44:21.308Z,95583.11
2019-04-03T18:49:07.165Z,95602.41
2019-04-03T18:54:03.306Z,95601.78
2019-04-03T18:59:06.935Z,95597.81
2019-04-03T19:04:05.147Z,95608.10
2019-04-03T19:09:09.964Z,95618.05
2019-04-03T19:14:02.060Z,95609.82
2019-04-03T19:19:07.832Z,95623.83
2019-04-03T19:24:11.244Z,95627.65
2019-04-03T19:29:37.782Z,95625.03
2019-04-03T19:34:58.653Z,95626.33
2019-04-03T19:40:21.114Z,95639.33
2019-04-03T19:45:20.621Z,95625.55
2019-04-03T19:50:16.373Z,95636.05
2019-04-03T19:55:12.690Z,95633.44
2019-04-03T20:00:10.664Z,95627.10
2019-04-03T20:05:07.149Z,95633.09
2019-04-03T20:10:03.763Z,95644.19
2019-04-03T20:15:02.398Z,95635.59
2019-04-03T20:19:58.825Z,95633.30
2019-04-03T20:25:00.057Z,95626.34
2019-04-03T20:29:52.861Z,95627.58
2019-04-03T20:34:50.105Z,95622.09
2019-04-03T20:39:49.974Z,95627.56
2019-04-03T20:44:48.595Z,95634.84
2019-04-03T20:49:44.554Z,95631.74
2019-04-03T20:54:40.666Z,95640.27
2019-04-03T20:59:38.807Z,95639.59
2019-04-03T21:05:07.718Z,95633.69
2019-04-03T21:10:00.953Z,95631.27
2019-04-03T21:15:07.678Z,95636.26
2019-04-03T21:20:01.599Z,95641.56
2019-04-03T22:17:38.912Z,95608.72
2019-04-03T22:22:45.450Z,95595.66
2019-04-03T22:27:42.894Z,95601.89
2019-04-03T22:32:42.574Z,95587.73
2019-04-03T22:37:42.752Z,95586.50
2019-04-03T22:42:40.793Z,95574.39
2019-04-03T22:47:36.819Z,95558.59
2019-04-03T22:52:32.911Z,95552.11
2019-04-03T22:57:28.832Z,95546.97
2019-04-03T23:02:24.664Z,95538.58
2019-04-03T23:07:23.680Z,95534.59
2019-04-03T23:12:34.677Z,95536.45
2019-04-03T23:17:30.732Z,95533.22
2019-04-03T23:22:26.811Z,95524.55
2019-04-03T23:27:22.804Z,95514.40
2019-04-03T23:32:18.859Z,95508.53
2019-04-03T23:37:14.836Z,95508.61
2019-04-03T23:42:10.889Z,95495.70
2019-04-03T23:47:06.837Z,95490.73
2019-04-03T23:52:04.204Z,95484.62
2019-04-03T23:57:01.097Z,95477.23
